Time;durP1;ratioP1;P1;durP2;ratioP2;P2;SDS_P1;SDS_P2;PMS_P1;PMS_P2;Temp;Humidity;BMP_temperature;BMP_pressure;BME280_temperature;BME280_humidity;BME280_pressure;Samples;Min_cycle;Max_cycle;Signal;HPM_P1;HPM_P2
2021/07/03 00:00:50;;;;;;;;;;;19.60;99.90;;;;;;5020859;28;19933;-81
2021/07/03 00:03:17;;;;;;;;;;;19.60;99.90;;;;;;5021819;28;19940;-82
2021/07/03 00:05:44;;;;;;;;;;;19.60;99.90;;;;;;5021390;28;20387;-81
2021/07/03 00:08:10;;;;;;;;;;;19.60;99.90;;;;;;5022352;28;20585;-80
2021/07/03 00:10:37;;;;;;;;;;;19.60;99.90;;;;;;5023258;28;19929;-82
2021/07/03 00:13:04;;;;;;;;;;;19.60;99.90;;;;;;5024320;28;19930;-81
2021/07/03 00:15:31;;;;;;;;;;;19.60;99.90;;;;;;5023664;28;19973;-81
2021/07/03 00:17:58;;;;;;;;;;;19.40;99.90;;;;;;5021874;28;19933;-81
2021/07/03 00:20:25;;;;;;;;;;;19.30;99.90;;;;;;5023265;28;19929;-81
2021/07/03 00:22:53;;;;;;;;;;;19.40;99.90;;;;;;5022425;28;19933;-80
2021/07/03 00:25:20;;;;;;;;;;;19.50;99.90;;;;;;5047418;28;19933;-81
2021/07/03 00:27:47;;;;;;;;;;;19.50;99.90;;;;;;5038453;28;20906;-81
2021/07/03 00:30:16;;;;;;;;;;;19.50;99.90;;;;;;5023529;28;19937;-82
2021/07/03 00:32:43;;;;;;;;;;;19.50;99.90;;;;;;5022565;28;20372;-81
2021/07/03 00:35:11;;;;;;;;;;;19.40;99.90;;;;;;5022358;28;19940;-81
2021/07/03 00:37:39;;;;;;;;;;;19.30;99.90;;;;;;5022169;28;19941;-81
2021/07/03 00:40:07;;;;;;;;;;;19.30;99.90;;;;;;5024185;28;19925;-82
2021/07/03 00:42:34;;;;;;;;;;;19.20;99.90;;;;;;5020636;28;19925;-81
2021/07/03 00:45:02;;;;;;;;;;;19.30;99.90;;;;;;5021292;28;19937;-81
2021/07/03 00:47:29;;;;;;;;;;;19.40;99.90;;;;;;5022332;28;20054;-81
2021/07/03 00:49:56;;;;;;;;;;;19.20;99.90;;;;;;5022687;28;19933;-81
2021/07/03 00:52:23;;;;;;;;;;;19.20;99.90;;;;;;5019535;28;19930;-81
2021/07/03 00:54:50;;;;;;;;;;;19.10;99.90;;;;;;5021289;28;19934;-81
2021/07/03 00:57:18;;;;;;;;;;;19.20;99.90;;;;;;5021845;28;20304;-81
2021/07/03 00:59:45;;;;;;;;;;;19.30;99.90;;;;;;5023473;28;19964;-80
2021/07/03 01:02:14;;;;;;;;;;;19.20;99.90;;;;;;5045566;28;20385;-80
2021/07/03 01:04:41;;;;;;;;;;;19.10;99.90;;;;;;5018708;28;19939;-80
2021/07/03 01:07:09;;;;;;;;;;;19.20;99.90;;;;;;5021181;28;19941;-81
2021/07/03 01:09:36;;;;;;;;;;;19.20;99.90;;;;;;5021139;28;19956;-80
2021/07/03 01:12:04;;;;;;;;;;;19.00;99.90;;;;;;5020866;28;19963;-81
2021/07/03 01:14:32;;;;;;;;;;;18.90;99.90;;;;;;5021925;28;19939;-80
2021/07/03 01:16:59;;;;;;;;;;;19.00;99.90;;;;;;5020112;28;19933;-81
2021/07/03 01:19:25;;;;;;;;;;;19.00;99.90;;;;;;5024776;28;19925;-81
2021/07/03 01:21:53;;;;;;;;;;;18.90;99.90;;;;;;5036597;28;19929;-81
2021/07/03 01:24:23;;;;;;;;;;;18.80;99.90;;;;;;5046046;28;19933;-80
2021/07/03 01:26:53;;;;;;;;;;;18.70;99.90;;;;;;5024537;28;20182;-80
2021/07/03 01:29:22;;;;;;;;;;;18.70;99.90;;;;;;5021700;28;19940;-81
2021/07/03 01:31:50;;;;;;;;;;;18.80;99.90;;;;;;5048829;28;19925;-80
2021/07/03 01:34:18;;;;;;;;;;;18.90;99.90;;;;;;5020072;28;19913;-80
2021/07/03 01:36:45;;;;;;;;;;;18.90;99.90;;;;;;5019538;28;20319;-81
2021/07/03 01:39:13;;;;;;;;;;;18.90;99.90;;;;;;5002246;28;19933;-80
2021/07/03 01:41:40;;;;;;;;;;;19.00;99.90;;;;;;5017656;28;19955;-80
2021/07/03 01:44:07;;;;;;;;;;;19.00;99.90;;;;;;5019524;28;19929;-80
2021/07/03 01:46:34;;;;;;;;;;;19.00;99.90;;;;;;5022697;28;19933;-81
2021/07/03 01:49:01;;;;;;;;;;;18.90;99.90;;;;;;5020982;28;19925;-81
2021/07/03 01:51:28;;;;;;;;;;;18.90;99.90;;;;;;5023080;28;20361;-81
2021/07/03 01:53:55;;;;;;;;;;;18.70;99.90;;;;;;5026179;28;19929;-80
2021/07/03 01:56:22;;;;;;;;;;;18.60;99.90;;;;;;5028405;28;19933;-81
2021/07/03 01:58:49;;;;;;;;;;;18.70;99.90;;;;;;5024422;28;19944;-81
2021/07/03 02:01:16;;;;;;;;;;;18.80;99.90;;;;;;5041972;28;19933;-81
2021/07/03 02:03:43;;;;;;;;;;;18.80;99.90;;;;;;5025402;28;19929;-80
2021/07/03 02:06:10;;;;;;;;;;;18.80;99.90;;;;;;5024562;28;19929;-80
2021/07/03 02:08:37;;;;;;;;;;;18.80;99.90;;;;;;5026243;28;19952;-81
2021/07/03 02:11:04;;;;;;;;;;;18.70;99.90;;;;;;5028436;28;19928;-81
2021/07/03 02:13:31;;;;;;;;;;;18.50;99.90;;;;;;5044583;28;19947;-80
2021/07/03 02:15:58;;;;;;;;;;;18.40;99.90;;;;;;5027077;28;20295;-81
2021/07/03 02:18:26;;;;;;;;;;;18.30;99.90;;;;;;5028920;28;20007;-81
2021/07/03 02:20:53;;;;;;;;;;;18.40;99.90;;;;;;5023352;28;19936;-80
2021/07/03 02:23:20;;;;;;;;;;;18.30;99.90;;;;;;5024686;28;19933;-78
2021/07/03 02:25:47;;;;;;;;;;;18.30;99.90;;;;;;5021700;28;19932;-79
2021/07/03 02:28:14;;;;;;;;;;;18.20;99.90;;;;;;5020386;28;19940;-80
2021/07/03 02:30:41;;;;;;;;;;;18.20;99.90;;;;;;5024286;28;19925;-79
2021/07/03 02:33:08;;;;;;;;;;;18.20;99.90;;;;;;5021126;28;19935;-80
2021/07/03 02:35:36;;;;;;;;;;;18.10;99.90;;;;;;5026953;28;19933;-80
2021/07/03 02:38:03;;;;;;;;;;;18.30;99.90;;;;;;5022797;28;19933;-81
2021/07/03 02:40:30;;;;;;;;;;;18.50;99.90;;;;;;5027463;28;19940;-81
2021/07/03 02:42:57;;;;;;;;;;;18.40;99.90;;;;;;5025860;28;19933;-80
2021/07/03 02:45:24;;;;;;;;;;;18.40;99.90;;;;;;5024917;28;19940;-80
2021/07/03 02:47:51;;;;;;;;;;;18.50;99.90;;;;;;5025329;28;19940;-80
2021/07/03 02:50:19;;;;;;;;;;;18.30;99.90;;;;;;5022792;28;19979;-79
2021/07/03 02:52:47;;;;;;;;;;;18.30;99.90;;;;;;5024229;28;19933;-79
2021/07/03 02:55:15;;;;;;;;;;;18.30;99.90;;;;;;5025694;28;19935;-79
2021/07/03 02:57:42;;;;;;;;;;;18.40;99.90;;;;;;5024997;28;20401;-79
2021/07/03 03:00:10;;;;;;;;;;;18.30;99.90;;;;;;5024918;28;19929;-79
2021/07/03 03:02:37;;;;;;;;;;;18.30;99.90;;;;;;5047032;28;20351;-79
2021/07/03 03:05:05;;;;;;;;;;;18.10;99.90;;;;;;5048976;28;19929;-80
2021/07/03 03:07:33;;;;;;;;;;;18.20;99.90;;;;;;5023625;28;19941;-79
2021/07/03 03:10:00;;;;;;;;;;;18.30;99.90;;;;;;5038743;28;19925;-79
2021/07/03 03:12:28;;;;;;;;;;;18.30;99.90;;;;;;5022700;28;20604;-79
2021/07/03 03:14:54;;;;;;;;;;;18.10;99.90;;;;;;5023180;28;19933;-79
2021/07/03 03:17:22;;;;;;;;;;;18.10;99.90;;;;;;5024702;28;20015;-79
2021/07/03 03:19:49;;;;;;;;;;;18.00;99.90;;;;;;5034643;28;19933;-79
2021/07/03 03:22:15;;;;;;;;;;;18.00;99.90;;;;;;5024804;28;20415;-78
2021/07/03 03:24:42;;;;;;;;;;;18.10;99.90;;;;;;5020357;28;20369;-79
2021/07/03 03:27:09;;;;;;;;;;;17.90;99.90;;;;;;5022157;28;19929;-79
2021/07/03 03:29:36;;;;;;;;;;;18.10;99.90;;;;;;5024425;28;20681;-79
2021/07/03 03:32:03;;;;;;;;;;;18.20;99.90;;;;;;5024115;28;19934;-79
2021/07/03 03:34:30;;;;;;;;;;;18.20;99.90;;;;;;5023198;28;19933;-79
2021/07/03 03:36:57;;;;;;;;;;;18.20;99.90;;;;;;5023775;28;19941;-79
2021/07/03 03:39:24;;;;;;;;;;;18.10;99.90;;;;;;5047631;28;19929;-79
2021/07/03 03:41:51;;;;;;;;;;;18.20;99.90;;;;;;5019147;28;19933;-79
2021/07/03 03:44:19;;;;;;;;;;;18.30;99.90;;;;;;5022354;28;19933;-79
2021/07/03 03:46:51;;;;;;;;;;;18.20;99.90;;;;;;5022926;28;19941;-79
2021/07/03 03:49:19;;;;;;;;;;;18.00;99.90;;;;;;5026718;28;19929;-79
2021/07/03 03:51:49;;;;;;;;;;;17.90;99.90;;;;;;5024262;28;19934;-79
2021/07/03 03:54:17;;;;;;;;;;;18.00;99.90;;;;;;5031190;28;19933;-79
2021/07/03 03:56:44;;;;;;;;;;;18.00;99.90;;;;;;5047221;28;19937;-79
2021/07/03 03:59:11;;;;;;;;;;;17.90;99.90;;;;;;5038527;28;19929;-79
2021/07/03 04:01:38;;;;;;;;;;;18.00;99.90;;;;;;5024121;28;19935;-79
2021/07/03 04:04:05;;;;;;;;;;;17.90;99.90;;;;;;5021487;28;20033;-79
2021/07/03 04:06:32;;;;;;;;;;;17.90;99.90;;;;;;5039440;28;19925;-79
2021/07/03 04:08:59;;;;;;;;;;;17.80;99.90;;;;;;5020382;28;19929;-79
2021/07/03 04:11:26;;;;;;;;;;;17.80;99.90;;;;;;5022056;28;20399;-79
2021/07/03 04:13:53;;;;;;;;;;;17.80;99.90;;;;;;5020622;28;19981;-79
2021/07/03 04:16:20;;;;;;;;;;;17.80;99.90;;;;;;5034752;28;19933;-79
2021/07/03 04:18:47;;;;;;;;;;;17.80;99.90;;;;;;5037013;28;19937;-79
2021/07/03 04:21:14;;;;;;;;;;;17.80;99.90;;;;;;5022373;28;19929;-79
2021/07/03 04:23:41;;;;;;;;;;;17.80;99.90;;;;;;5022851;28;19933;-79
2021/07/03 04:26:08;;;;;;;;;;;17.70;99.90;;;;;;5022882;28;20605;-80
2021/07/03 04:28:34;;;;;;;;;;;17.70;99.90;;;;;;5020559;28;19940;-80
2021/07/03 04:31:01;;;;;;;;;;;17.80;99.90;;;;;;5025783;28;19933;-80
2021/07/03 04:33:28;;;;;;;;;;;17.80;99.90;;;;;;5023944;28;19925;-80
2021/07/03 04:35:55;;;;;;;;;;;17.90;99.90;;;;;;5024291;28;19941;-80
2021/07/03 04:38:22;;;;;;;;;;;18.10;99.90;;;;;;5019869;28;19940;-81
2021/07/03 04:40:49;;;;;;;;;;;18.10;99.90;;;;;;5035312;28;19990;-81
2021/07/03 04:43:15;;;;;;;;;;;18.10;99.90;;;;;;5024354;28;19940;-80
2021/07/03 04:45:43;;;;;;;;;;;18.00;99.90;;;;;;5022523;28;19929;-79
2021/07/03 04:48:09;;;;;;;;;;;18.00;99.90;;;;;;5021930;28;20372;-80
2021/07/03 04:50:36;;;;;;;;;;;18.10;99.90;;;;;;5020474;28;20731;-80
2021/07/03 04:53:03;;;;;;;;;;;18.30;99.90;;;;;;5035889;28;19933;-80
2021/07/03 04:55:30;;;;;;;;;;;18.40;99.90;;;;;;5022760;28;19925;-80
2021/07/03 04:57:57;;;;;;;;;;;18.60;99.90;;;;;;5021883;28;19949;-79
2021/07/03 05:00:24;;;;;;;;;;;19.00;99.90;;;;;;5019607;28;20316;-79
2021/07/03 05:02:53;;;;;;;;;;;19.20;99.90;;;;;;5021563;28;19933;-79
2021/07/03 05:05:20;;;;;;;;;;;19.20;99.90;;;;;;5021972;28;19960;-80
2021/07/03 05:07:47;;;;;;;;;;;19.20;99.90;;;;;;5036522;28;19939;-79
2021/07/03 05:10:13;;;;;;;;;;;19.40;99.90;;;;;;5022533;28;19925;-79
2021/07/03 05:12:40;;;;;;;;;;;19.70;99.90;;;;;;5024108;28;19929;-79
2021/07/03 05:15:08;;;;;;;;;;;20.00;99.90;;;;;;5021754;28;19929;-79
2021/07/03 05:17:35;;;;;;;;;;;20.60;99.30;;;;;;5021971;28;19929;-80
2021/07/03 05:20:04;;;;;;;;;;;20.70;98.60;;;;;;5019860;28;19957;-79
2021/07/03 05:22:31;;;;;;;;;;;21.00;98.70;;;;;;5038147;28;19933;-79
2021/07/03 05:24:57;;;;;;;;;;;21.60;97.50;;;;;;5021804;28;19929;-79
2021/07/03 05:27:24;;;;;;;;;;;21.90;96.50;;;;;;5018822;28;19951;-80
2021/07/03 05:29:51;;;;;;;;;;;22.60;95.20;;;;;;5021454;28;19933;-79
2021/07/03 05:32:18;;;;;;;;;;;23.00;94.40;;;;;;5022867;28;20424;-80
2021/07/03 05:34:45;;;;;;;;;;;23.50;92.60;;;;;;5037138;28;20383;-79
2021/07/03 05:37:12;;;;;;;;;;;24.40;91.00;;;;;;5021397;28;19934;-80
2021/07/03 05:39:38;;;;;;;;;;;24.90;87.10;;;;;;5021098;28;20396;-80
2021/07/03 05:42:05;;;;;;;;;;;24.90;85.30;;;;;;5023420;28;19952;-80
2021/07/03 05:44:32;;;;;;;;;;;24.00;86.10;;;;;;5022474;28;20355;-80
2021/07/03 05:46:59;;;;;;;;;;;22.70;90.60;;;;;;5023835;28;19933;-79
2021/07/03 05:49:26;;;;;;;;;;;22.40;91.60;;;;;;5021104;28;19999;-80
2021/07/03 05:51:54;;;;;;;;;;;21.20;93.70;;;;;;5021801;28;19937;-79
2021/07/03 05:54:21;;;;;;;;;;;20.70;95.70;;;;;;5021454;28;19931;-79
2021/07/03 05:56:49;;;;;;;;;;;20.60;96.70;;;;;;5021421;28;19928;-80
2021/07/03 05:59:17;;;;;;;;;;;20.50;97.20;;;;;;5019114;28;19964;-80
2021/07/03 06:01:44;;;;;;;;;;;20.30;97.80;;;;;;5022259;28;19937;-80
2021/07/03 06:04:11;;;;;;;;;;;20.00;99.10;;;;;;5024770;28;20335;-80
2021/07/03 06:06:38;;;;;;;;;;;19.90;99.60;;;;;;5020745;28;19934;-80
2021/07/03 06:09:05;;;;;;;;;;;20.00;99.10;;;;;;5021170;28;21601;-81
2021/07/03 06:11:33;;;;;;;;;;;19.70;98.80;;;;;;5019498;28;19945;-81
2021/07/03 06:14:01;;;;;;;;;;;19.60;99.10;;;;;;5022275;28;19933;-81
2021/07/03 06:16:28;;;;;;;;;;;19.60;99.20;;;;;;5021978;28;19933;-82
2021/07/03 06:18:56;;;;;;;;;;;19.70;99.40;;;;;;5023086;28;19987;-80
2021/07/03 06:21:23;;;;;;;;;;;19.80;99.60;;;;;;5022247;28;19925;-80
2021/07/03 06:23:51;;;;;;;;;;;20.20;99.40;;;;;;5021351;28;19933;-80
2021/07/03 06:26:17;;;;;;;;;;;20.50;98.20;;;;;;5021293;28;19929;-81
2021/07/03 06:28:44;;;;;;;;;;;20.40;98.30;;;;;;5020224;28;19933;-81
2021/07/03 06:31:12;;;;;;;;;;;20.30;98.40;;;;;;5017670;28;20691;-81
2021/07/03 06:33:40;;;;;;;;;;;20.30;98.50;;;;;;5020254;28;19933;-80
2021/07/03 06:36:06;;;;;;;;;;;21.00;97.40;;;;;;5045251;28;20341;-79
2021/07/03 06:38:33;;;;;;;;;;;20.80;97.30;;;;;;5036814;28;19937;-80
2021/07/03 06:41:00;;;;;;;;;;;20.70;97.40;;;;;;5025248;28;19963;-78
2021/07/03 06:43:27;;;;;;;;;;;21.10;97.10;;;;;;5024964;28;19929;-79
2021/07/03 06:45:54;;;;;;;;;;;22.80;93.90;;;;;;5025312;28;19951;-81
2021/07/03 06:48:21;;;;;;;;;;;23.30;90.70;;;;;;5037254;28;19925;-80
2021/07/03 06:50:49;;;;;;;;;;;22.80;90.50;;;;;;5024023;28;20063;-80
2021/07/03 06:53:15;;;;;;;;;;;23.40;90.40;;;;;;5026960;28;19948;-80
2021/07/03 06:55:42;;;;;;;;;;;24.50;85.10;;;;;;5020317;28;19940;-79
2021/07/03 06:58:09;;;;;;;;;;;22.80;86.70;;;;;;5020147;28;19933;-82
2021/07/03 07:00:36;;;;;;;;;;;21.50;92.10;;;;;;5037409;28;19936;-79
2021/07/03 07:03:03;;;;;;;;;;;21.20;94.00;;;;;;5022801;28;19929;-80
2021/07/03 07:05:31;;;;;;;;;;;20.90;95.10;;;;;;5025184;28;19929;-80
2021/07/03 07:07:58;;;;;;;;;;;20.90;95.80;;;;;;5024811;28;19933;-80
2021/07/03 07:10:25;;;;;;;;;;;21.00;96.00;;;;;;5025780;28;19929;-80
2021/07/03 07:12:52;;;;;;;;;;;20.90;96.40;;;;;;5023274;28;19937;-80
2021/07/03 07:15:19;;;;;;;;;;;21.00;97.00;;;;;;5040805;28;19979;-80
2021/07/03 07:17:45;;;;;;;;;;;21.10;96.60;;;;;;5025143;28;19933;-80
2021/07/03 07:20:13;;;;;;;;;;;21.10;96.40;;;;;;5022037;28;19939;-80
2021/07/03 07:22:40;;;;;;;;;;;21.90;95.50;;;;;;5023953;28;19993;-79
2021/07/03 07:25:07;;;;;;;;;;;22.10;94.30;;;;;;5025360;28;19933;-79
2021/07/03 07:27:35;;;;;;;;;;;22.00;94.40;;;;;;5023112;28;20304;-80
2021/07/03 07:30:02;;;;;;;;;;;22.20;94.20;;;;;;5037961;28;20380;-81
2021/07/03 07:32:29;;;;;;;;;;;22.10;94.00;;;;;;5022038;28;19925;-81
2021/07/03 07:34:58;;;;;;;;;;;21.70;95.20;;;;;;5021222;28;20316;-80
2021/07/03 07:37:27;;;;;;;;;;;21.60;95.60;;;;;;5024465;28;20338;-80
2021/07/03 07:39:54;;;;;;;;;;;21.50;95.90;;;;;;5022879;28;19940;-80
2021/07/03 07:42:21;;;;;;;;;;;21.50;96.10;;;;;;5025921;28;19929;-80
2021/07/03 07:44:48;;;;;;;;;;;21.30;97.00;;;;;;5021206;28;19933;-81
2021/07/03 07:47:14;;;;;;;;;;;21.40;96.10;;;;;;5039740;28;19929;-80
2021/07/03 07:49:41;;;;;;;;;;;21.40;96.50;;;;;;5037719;28;19930;-81
2021/07/03 07:52:08;;;;;;;;;;;21.50;95.70;;;;;;5023490;28;19940;-81
2021/07/03 07:54:35;;;;;;;;;;;21.50;95.40;;;;;;5023150;28;20052;-79
2021/07/03 07:57:02;;;;;;;;;;;21.60;95.10;;;;;;5020702;28;19939;-79
2021/07/03 07:59:29;;;;;;;;;;;21.60;95.60;;;;;;5020284;28;19929;-80
2021/07/03 08:01:57;;;;;;;;;;;21.60;94.50;;;;;;5021523;28;19938;-80
2021/07/03 08:04:25;;;;;;;;;;;21.90;93.50;;;;;;5022724;28;19978;-80
2021/07/03 08:06:52;;;;;;;;;;;22.00;93.10;;;;;;5020106;28;19933;-81
2021/07/03 08:09:19;;;;;;;;;;;22.00;93.40;;;;;;5020362;28;19944;-81
2021/07/03 08:11:46;;;;;;;;;;;21.90;92.80;;;;;;5022862;28;20375;-81
2021/07/03 08:14:13;;;;;;;;;;;21.90;92.70;;;;;;5020834;28;19933;-80
2021/07/03 08:16:41;;;;;;;;;;;21.90;91.90;;;;;;5026763;28;19929;-80
2021/07/03 08:19:08;;;;;;;;;;;21.90;92.10;;;;;;5022193;28;19925;-80
2021/07/03 08:21:34;;;;;;;;;;;22.00;92.80;;;;;;5023635;28;19933;-81
2021/07/03 08:24:01;;;;;;;;;;;22.00;92.80;;;;;;5020218;28;19943;-78
2021/07/03 08:26:28;;;;;;;;;;;22.10;93.50;;;;;;5022153;28;20007;-79
2021/07/03 08:28:55;;;;;;;;;;;22.20;92.60;;;;;;5020357;28;20316;-82
2021/07/03 08:31:22;;;;;;;;;;;22.20;92.80;;;;;;5022122;28;20024;-79
2021/07/03 08:33:49;;;;;;;;;;;22.30;92.80;;;;;;5021363;28;19935;-80
2021/07/03 08:36:16;;;;;;;;;;;22.30;92.40;;;;;;5020689;28;19944;-80
2021/07/03 08:38:43;;;;;;;;;;;22.30;92.30;;;;;;5017354;28;19945;-79
2021/07/03 08:41:11;;;;;;;;;;;22.40;93.50;;;;;;5021145;28;19929;-80
2021/07/03 08:43:49;;;;;;;;;;;22.50;92.30;;;;;;5022093;28;19928;-82
2021/07/03 08:46:17;;;;;;;;;;;22.50;91.70;;;;;;5021919;28;20775;-80
2021/07/03 08:48:46;;;;;;;;;;;22.50;91.30;;;;;;5037013;28;19934;-80
2021/07/03 08:51:13;;;;;;;;;;;22.60;90.90;;;;;;5020874;28;19941;-82
2021/07/03 08:53:40;;;;;;;;;;;22.50;90.90;;;;;;5024288;28;19996;-80
2021/07/03 08:56:07;;;;;;;;;;;22.60;90.80;;;;;;5020445;28;19936;-81
2021/07/03 08:58:34;;;;;;;;;;;22.70;90.90;;;;;;5022044;28;19933;-80
2021/07/03 09:01:02;;;;;;;;;;;22.80;90.10;;;;;;5014933;28;19936;-80
2021/07/03 09:03:30;;;;;;;;;;;22.80;89.00;;;;;;5034927;28;19983;-79
2021/07/03 09:05:58;;;;;;;;;;;22.80;88.90;;;;;;5018247;28;19941;-80
2021/07/03 09:08:25;;;;;;;;;;;23.10;85.40;;;;;;5044175;28;19933;-80
2021/07/03 09:11:03;;;;;;;;;;;22.90;87.50;;;;;;5019174;28;19933;-80
2021/07/03 09:13:31;;;;;;;;;;;22.90;86.90;;;;;;5018473;28;19929;-79
2021/07/03 09:15:58;;;;;;;;;;;22.90;87.30;;;;;;5017931;28;20406;-79
2021/07/03 09:18:27;;;;;;;;;;;22.90;89.10;;;;;;5018750;28;20004;-79
2021/07/03 09:20:55;;;;;;;;;;;23.00;87.50;;;;;;5032859;28;19941;-79
2021/07/03 09:23:23;;;;;;;;;;;23.10;85.00;;;;;;5018981;28;19933;-80
2021/07/03 09:25:50;;;;;;;;;;;23.10;85.60;;;;;;5017348;28;19936;-81
2021/07/03 09:28:18;;;;;;;;;;;23.20;86.90;;;;;;5018084;28;19939;-81
2021/07/03 09:30:47;;;;;;;;;;;23.20;85.00;;;;;;5018670;28;19933;-79
2021/07/03 09:33:18;;;;;;;;;;;23.20;86.80;;;;;;5034825;28;19940;-82
2021/07/03 09:35:52;;;;;;;;;;;23.10;82.50;;;;;;5021411;28;20403;-83
2021/07/03 09:38:26;;;;;;;;;;;23.10;81.50;;;;;;5045227;28;19957;-80
2021/07/03 09:41:03;;;;;;;;;;;23.30;83.60;;;;;;5021952;28;19929;-81
2021/07/03 09:43:30;;;;;;;;;;;23.50;83.50;;;;;;5019892;28;19986;-82
2021/07/03 09:45:57;;;;;;;;;;;23.50;81.70;;;;;;5021763;28;20623;-83
2021/07/03 09:48:24;;;;;;;;;;;23.50;78.30;;;;;;5022369;28;19929;-82
2021/07/03 09:50:51;;;;;;;;;;;23.50;74.10;;;;;;5019103;28;19948;-81
2021/07/03 09:53:21;;;;;;;;;;;23.50;75.10;;;;;;5022315;28;19936;-82
2021/07/03 09:55:49;;;;;;;;;;;23.60;75.60;;;;;;5019540;28;19934;-82
2021/07/03 09:58:16;;;;;;;;;;;23.70;79.80;;;;;;5035777;28;19952;-82
2021/07/03 10:00:43;;;;;;;;;;;23.70;80.80;;;;;;5020917;28;19929;-83
2021/07/03 10:03:10;;;;;;;;;;;23.70;76.90;;;;;;5022644;28;19940;-82
2021/07/03 10:05:39;;;;;;;;;;;23.80;74.70;;;;;;5017738;28;19929;-79
2021/07/03 10:08:08;;;;;;;;;;;23.80;76.90;;;;;;5018699;28;19929;-82
2021/07/03 10:10:36;;;;;;;;;;;24.00;72.60;;;;;;5021150;28;19940;-84
2021/07/03 10:13:08;;;;;;;;;;;24.10;70.70;;;;;;5022281;28;19937;-81
2021/07/03 10:15:36;;;;;;;;;;;24.10;71.60;;;;;;5041308;28;20286;-82
2021/07/03 10:18:06;;;;;;;;;;;24.20;71.20;;;;;;5017954;28;20459;-76
2021/07/03 10:20:33;;;;;;;;;;;24.10;69.20;;;;;;5020932;28;19933;-76
2021/07/03 10:23:00;;;;;;;;;;;24.10;72.30;;;;;;5022307;28;20399;-76
2021/07/03 10:25:49;;;;;;;;;;;24.10;73.00;;;;;;5023710;28;20020;-81
2021/07/03 10:28:16;;;;;;;;;;;24.10;77.60;;;;;;5021406;28;19933;-80
2021/07/03 10:30:49;;;;;;;;;;;24.20;70.50;;;;;;5021164;28;19936;-75
2021/07/03 10:33:17;;;;;;;;;;;24.20;74.60;;;;;;5023217;28;19934;-76
2021/07/03 10:35:49;;;;;;;;;;;24.30;68.80;;;;;;5017900;28;19933;-75
2021/07/03 10:38:17;;;;;;;;;;;24.30;65.20;;;;;;5020984;28;20534;-74
2021/07/03 10:40:44;;;;;;;;;;;24.40;66.00;;;;;;5020117;28;19933;-72
2021/07/03 10:43:12;;;;;;;;;;;24.40;65.30;;;;;;5015683;28;19932;-70
2021/07/03 10:45:46;;;;;;;;;;;24.40;65.60;;;;;;5034642;28;19929;-71
2021/07/03 10:48:14;;;;;;;;;;;24.50;63.60;;;;;;5017952;28;20388;-72
2021/07/03 10:50:41;;;;;;;;;;;24.50;62.60;;;;;;5020954;28;20655;-71
2021/07/03 10:53:18;;;;;;;;;;;24.50;63.90;;;;;;5019777;28;19940;-72
2021/07/03 10:55:45;;;;;;;;;;;24.60;65.40;;;;;;5019183;28;19933;-75
2021/07/03 10:58:13;;;;;;;;;;;24.60;62.70;;;;;;5021124;28;20006;-73
2021/07/03 11:00:40;;;;;;;;;;;24.50;66.70;;;;;;5020111;28;19933;-73
2021/07/03 11:03:14;;;;;;;;;;;24.40;68.30;;;;;;5021446;28;19929;-81
2021/07/03 11:05:41;;;;;;;;;;;24.40;70.10;;;;;;5025198;28;20024;-80
2021/07/03 11:08:22;;;;;;;;;;;24.30;70.10;;;;;;5018871;28;19951;-80
2021/07/03 11:10:50;;;;;;;;;;;24.30;67.80;;;;;;5021539;28;19929;-79
2021/07/03 11:13:18;;;;;;;;;;;24.30;65.70;;;;;;5023147;28;19929;-80
2021/07/03 11:15:45;;;;;;;;;;;24.40;63.30;;;;;;5037792;28;19933;-81
2021/07/03 11:18:12;;;;;;;;;;;24.30;63.50;;;;;;5024275;28;20028;-80
2021/07/03 11:20:40;;;;;;;;;;;24.40;58.30;;;;;;5024205;28;19936;-82
2021/07/03 11:23:08;;;;;;;;;;;24.40;64.50;;;;;;5021461;28;19933;-80
2021/07/03 11:25:35;;;;;;;;;;;24.40;61.20;;;;;;5025049;28;19929;-80
2021/07/03 11:28:05;;;;;;;;;;;24.50;63.80;;;;;;5019348;28;19929;-81
2021/07/03 11:30:32;;;;;;;;;;;24.50;60.20;;;;;;5022221;28;20470;-81
2021/07/03 11:33:00;;;;;;;;;;;24.50;58.50;;;;;;5023704;28;19925;-80
2021/07/03 11:35:28;;;;;;;;;;;24.60;58.60;;;;;;5022112;28;19935;-80
2021/07/03 11:37:55;;;;;;;;;;;24.60;59.70;;;;;;5025578;28;19929;-81
2021/07/03 11:40:24;;;;;;;;;;;24.60;59.90;;;;;;5021855;28;19929;-82
2021/07/03 11:42:52;;;;;;;;;;;24.80;59.40;;;;;;5036306;28;20463;-79
2021/07/03 11:45:20;;;;;;;;;;;24.80;57.90;;;;;;5020819;28;19929;-81
2021/07/03 11:47:50;;;;;;;;;;;24.80;57.50;;;;;;5021311;28;19948;-81
2021/07/03 11:50:28;;;;;;;;;;;24.80;59.10;;;;;;5021462;28;19929;-83
2021/07/03 11:52:55;;;;;;;;;;;24.80;57.40;;;;;;5018151;28;19956;-81
2021/07/03 11:55:24;;;;;;;;;;;24.80;59.90;;;;;;5021127;28;19933;-80
2021/07/03 11:57:51;;;;;;;;;;;24.90;55.70;;;;;;5022269;28;19933;-81
2021/07/03 12:00:20;;;;;;;;;;;25.10;51.00;;;;;;5023023;28;20343;-82
2021/07/03 12:02:50;;;;;;;;;;;25.40;51.60;;;;;;5037127;28;19929;-81
2021/07/03 12:05:23;;;;;;;;;;;25.60;52.00;;;;;;5021621;28;19940;-80
2021/07/03 12:07:59;;;;;;;;;;;25.70;51.80;;;;;;5020847;28;19933;-80
2021/07/03 12:10:32;;;;;;;;;;;25.70;51.40;;;;;;5020580;28;19933;-81
2021/07/03 12:12:59;;;;;;;;;;;25.60;55.60;;;;;;5024168;28;19937;-81
2021/07/03 12:15:29;;;;;;;;;;;25.50;56.20;;;;;;5021537;28;19979;-81
2021/07/03 12:17:57;;;;;;;;;;;25.70;55.30;;;;;;5018750;28;20037;-82
2021/07/03 12:20:25;;;;;;;;;;;25.90;54.70;;;;;;5024175;28;19933;-81
2021/07/03 12:23:00;;;;;;;;;;;26.10;54.50;;;;;;5019998;28;19937;-79
2021/07/03 12:25:27;;;;;;;;;;;27.30;52.90;;;;;;5022212;28;19925;-79
2021/07/03 12:27:59;;;;;;;;;;;28.60;49.30;;;;;;5020994;28;19935;-77
2021/07/03 12:30:26;;;;;;;;;;;29.80;45.20;;;;;;5036723;28;19932;-79
2021/07/03 12:33:01;;;;;;;;;;;29.90;44.10;;;;;;5028745;28;20154;-77
2021/07/03 12:35:52;;;;;;;;;;;31.30;43.20;;;;;;5028623;28;20023;-77
2021/07/03 12:38:23;;;;;;;;;;;35.60;37.60;;;;;;5050496;28;19933;-77
2021/07/03 12:40:50;;;;;;;;;;;37.10;34.30;;;;;;5030673;28;19932;-77
2021/07/03 12:43:17;;;;;;;;;;;39.20;30.80;;;;;;5031772;28;20335;-77
2021/07/03 12:45:44;;;;;;;;;;;39.10;30.30;;;;;;5034237;28;19940;-77
2021/07/03 12:48:12;;;;;;;;;;;38.10;30.50;;;;;;5041451;28;19987;-78
2021/07/03 12:50:44;;;;;;;;;;;38.20;30.60;;;;;;5036605;28;19932;-77
2021/07/03 12:53:14;;;;;;;;;;;36.10;32.70;;;;;;5028651;28;19929;-77
2021/07/03 12:55:41;;;;;;;;;;;33.00;35.00;;;;;;5043912;28;19929;-75
2021/07/03 12:58:21;;;;;;;;;;;31.10;38.10;;;;;;5027561;28;19929;-75
2021/07/03 13:00:56;;;;;;;;;;;31.50;38.30;;;;;;5027267;28;19925;-76
2021/07/03 13:03:24;;;;;;;;;;;31.10;38.40;;;;;;5028410;28;19929;-76
2021/07/03 13:06:05;;;;;;;;;;;29.60;39.40;;;;;;5026302;28;19929;-77
2021/07/03 13:08:33;;;;;;;;;;;28.90;40.80;;;;;;5027307;28;20556;-77
2021/07/03 13:11:00;;;;;;;;;;;28.40;41.50;;;;;;5027357;28;19948;-77
2021/07/03 13:13:27;;;;;;;;;;;28.10;41.50;;;;;;5027550;28;19979;-76
2021/07/03 13:15:55;;;;;;;;;;;27.90;42.20;;;;;;5029443;28;20328;-77
2021/07/03 13:18:22;;;;;;;;;;;27.80;43.80;;;;;;5028722;28;19995;-77
2021/07/03 13:20:49;;;;;;;;;;;27.70;42.70;;;;;;5029445;28;19932;-77
2021/07/03 13:23:31;;;;;;;;;;;26.90;43.60;;;;;;5029006;28;19937;-77
2021/07/03 13:25:58;;;;;;;;;;;26.90;43.40;;;;;;5025773;28;19925;-83
2021/07/03 13:28:25;;;;;;;;;;;26.90;43.90;;;;;;5031176;28;19929;-83
2021/07/03 13:30:52;;;;;;;;;;;26.80;45.50;;;;;;5028734;28;19931;-82
2021/07/03 13:33:19;;;;;;;;;;;26.70;44.10;;;;;;5030343;28;19952;-80
2021/07/03 13:35:46;;;;;;;;;;;26.60;44.50;;;;;;5030505;28;19929;-82
2021/07/03 13:38:13;;;;;;;;;;;26.90;44.50;;;;;;5029331;28;19929;-83
2021/07/03 13:40:40;;;;;;;;;;;26.90;44.70;;;;;;5030565;28;20292;-82
2021/07/03 13:43:07;;;;;;;;;;;27.40;45.40;;;;;;5030143;28;20304;-78
2021/07/03 13:45:33;;;;;;;;;;;27.80;43.70;;;;;;5029631;28;19925;-81
2021/07/03 13:48:01;;;;;;;;;;;27.30;45.60;;;;;;5030804;28;19929;-82
2021/07/03 13:50:27;;;;;;;;;;;27.10;45.90;;;;;;5034681;28;19929;-82
2021/07/03 13:52:55;;;;;;;;;;;26.90;46.10;;;;;;5050656;28;20262;-82
2021/07/03 13:55:22;;;;;;;;;;;26.80;45.70;;;;;;5035302;28;19925;-82
2021/07/03 13:57:49;;;;;;;;;;;26.60;45.30;;;;;;5035602;28;19933;-83
2021/07/03 14:00:16;;;;;;;;;;;26.50;47.50;;;;;;5034514;28;19925;-82
2021/07/03 14:02:43;;;;;;;;;;;26.50;46.80;;;;;;5035032;28;20607;-82
2021/07/03 14:05:10;;;;;;;;;;;26.70;47.10;;;;;;5033308;28;19936;-83
2021/07/03 14:07:38;;;;;;;;;;;26.70;46.40;;;;;;5034066;28;19925;-83
2021/07/03 14:10:07;;;;;;;;;;;26.80;46.00;;;;;;5034545;28;19926;-85
2021/07/03 14:12:34;;;;;;;;;;;26.80;46.70;;;;;;5033706;28;19925;-82
2021/07/03 14:15:02;;;;;;;;;;;26.70;48.40;;;;;;5033967;28;20442;-82
2021/07/03 14:17:31;;;;;;;;;;;26.70;46.90;;;;;;5033182;28;19932;-82
2021/07/03 14:20:03;;;;;;;;;;;26.60;46.20;;;;;;5032005;28;19935;-82